Observations for EDINBURGH AIRPORT, United Kingdom (EGPH)

EGPH 220950Z 22013KT 9999 FEW045 14/05 Q1003
EGPH 220920Z 24006KT 210V270 9999 FEW046 13/05 Q1003
EGPH 220850Z 24009KT CAVOK 13/05 Q1003  
EGPH 220820Z 22014KT CAVOK 13/03 Q1003  
EGPH 220750Z 22012KT CAVOK 13/03 Q1003  
EGPH 220720Z 22010KT CAVOK 13/03 Q1003  
EGPH 220650Z 22010KT 9999 FEW045 13/04 Q1003
EGPH 220620Z 21009KT 9999 SCT040 13/05 Q1003
EGPH 220550Z 22007KT 180V240 9999 SCT044 13/07 Q1003
EGPH 220520Z 21007KT 160V300 9999 BKN039 13/09 Q1003
EGPH 220450Z 23004KT 190V260 7000 FEW033 BKN044 08/08 Q1003 
EGPH 220420Z 28003KT 5000 HZ SCT033 BKN041 08/07 Q1004  
EGPH 220350Z 33001KT 5000 HZ BKN030 09/08 Q1004 
EGPH 220320Z 03001KT 6000 OVC030 09/08 Q1005
EGPH 220250Z 13001KT 6000 OVC034 09/08 Q1005
EGPH 220220Z VRB01KT 5000 BR OVC032 09/08 Q1006 
EGPH 220150Z 00000KT 5000 BR OVC034CB 09/08 Q1006   
EGPH 220120Z VRB03KT 6000 BKN039CB 07/07 Q1007  
EGPH 220050Z 33001KT 6000 SCT031 07/06 Q1007
EGPH 220020Z 27002KT 8000 SCT031 07/06 Q1007
EGPH 212350Z VRB03KT 8000 NSC 09/08 Q1008   
EGPH 212320Z VRB02KT 9999 SCT038 09/08 Q1008
EGPH 212250Z VRB02KT CAVOK 08/07 Q1009  
EGPH 212220Z VRB02KT 9000 NSC 08/07 Q1009   
EGPH 212150Z 06002KT CAVOK 08/07 Q1009  
EGPH 212120Z 03002KT CAVOK 08/07 Q1010  
EGPH 212050Z 05004KT CAVOK 07/06 Q1010  
EGPH 212020Z 04005KT CAVOK 07/06 Q1011  
EGPH 211950Z 06004KT CAVOK 07/06 Q1011  
EGPH 211820Z 06008KT CAVOK 12/07 Q1012  
EGPH 211750Z 07008KT CAVOK 15/06 Q1013  
EGPH 211650Z 05009KT CAVOK 15/06 Q1014  
EGPH 211620Z 05010KT CAVOK 16/06 Q1014  
EGPH 211550Z 04009KT CAVOK 15/07 Q1015  
EGPH 211520Z 05011KT CAVOK 15/07 Q1015  
EGPH 211450Z 05010KT CAVOK 15/07 Q1016  
EGPH 211420Z 05010KT CAVOK 15/07 Q1016  
EGPH 211350Z 05008KT 010V090 9999 FEW019 16/07 Q1017
EGPH 211320Z 17005KT 120V270 CAVOK 18/05 Q1017  
EGPH 211250Z 20009KT 170V260 9999 SCT044 18/05 Q1018
EGPH 211220Z 21009KT 180V250 9999 SCT044 17/06 Q1018
EGPH 211150Z 25009KT 210V310 9999 SCT042 16/07 Q1019
EGPH 211120Z 22011KT 9999 SCT041 16/06 Q1019
EGPH 211050Z 20009KT 9999 SCT038 15/06 Q1019
EGPH 211020Z VRB06KT 9999 SCT032 15/07 Q1020
EGPH 210950Z 05005KT 360V080 9999 FEW032 13/07 Q1020
EGPH 210920Z 03005KT 360V060 CAVOK 12/07 Q1021